Airfield :
LOGIN :

Register | Disclaimer

   EN    FR    IT 

 










Legend :    VFR   Marginal VFR   IFR   Intensive IFR   Very Intensive IFR
Visi :
Ceiling :
>= 8 km
>= 3000ft
5 to 8 km
1000 to 3000 ft
1500m to 5 km
500 to 1000 ft
800 to 1500m
200 to 500 ft
< 800m
< 200 ft
Symbols :   Thunderstorms  Fog  Heavy snow  Heavy precipitations  Wind > 20 kt
SIGMETs :     Misc.  Thunderstorms  Icing  Turbulence  Mountain Waves  Volcanic Ashes







- Airport Elevation : 765 ft


LOAV - Vöslau

CURRENT METAR :
  • 291300Z 06007KT 30KM FEW050CU SCT300CI 27/10

EXPIRED METARs :
  • 291200Z 09007KT 30KM FEW050CU SCT300CI 26/10
  • 291100Z 06007KT 30KM FEW050CU SCT300CI 25/12

TAF TAF LOAV
Valid from the 29 at 12:00 until the 29 at 21:00 UTC


291125Z 2912/2921 07005KT 9999 FEW050 SCT300
No reported NOTAMs for that airfield.



MET'MAP, your aeronautical weather chart ! - Copyright ORBIFLY December 2007 - Disclaimer

ORBIFLY MET'MAP TEAM :

Programming & Development : Alexandra Zaïnal
Concept & Development : Baudouin d'Aumeries
Co-Development & Prog : Marc-Olivier Méhu
Technical & hardware support : Manuel Goepfert

Contact : metmap@orbifly.com




SOURCES & CREDITS :

   NOAA